sensor_id;sensor_type;location;lat;lon;timestamp;temperature;humidity
39751;DHT22;37579;51.074;17.004;2023-07-13T00:00:25;25.20;70.80
39751;DHT22;37579;51.074;17.004;2023-07-13T00:02:51;25.10;70.70
39751;DHT22;37579;51.074;17.004;2023-07-13T00:05:23;25.20;70.70
39751;DHT22;37579;51.074;17.004;2023-07-13T00:07:51;25.10;70.80
39751;DHT22;37579;51.074;17.004;2023-07-13T00:10:18;25.10;70.70
39751;DHT22;37579;51.074;17.004;2023-07-13T00:12:44;25.30;70.30
39751;DHT22;37579;51.074;17.004;2023-07-13T00:15:20;25.40;69.80
39751;DHT22;37579;51.074;17.004;2023-07-13T00:17:55;25.50;69.30
39751;DHT22;37579;51.074;17.004;2023-07-13T00:20:22;25.50;69.20
39751;DHT22;37579;51.074;17.004;2023-07-13T00:22:49;25.60;69.00
39751;DHT22;37579;51.074;17.004;2023-07-13T00:25:15;25.70;68.60
39751;DHT22;37579;51.074;17.004;2023-07-13T00:27:43;25.80;68.50
39751;DHT22;37579;51.074;17.004;2023-07-13T00:30:10;25.60;69.10
39751;DHT22;37579;51.074;17.004;2023-07-13T00:32:36;25.40;69.90
39751;DHT22;37579;51.074;17.004;2023-07-13T00:35:02;25.20;70.70
39751;DHT22;37579;51.074;17.004;2023-07-13T00:37:30;24.90;71.60
39751;DHT22;37579;51.074;17.004;2023-07-13T00:39:56;24.90;72.00
39751;DHT22;37579;51.074;17.004;2023-07-13T00:42:23;24.80;72.10
39751;DHT22;37579;51.074;17.004;2023-07-13T00:47:38;25.40;70.40
39751;DHT22;37579;51.074;17.004;2023-07-13T00:50:08;25.60;69.30
39751;DHT22;37579;51.074;17.004;2023-07-13T00:52:36;25.70;68.70
39751;DHT22;37579;51.074;17.004;2023-07-13T00:55:02;25.80;68.40
39751;DHT22;37579;51.074;17.004;2023-07-13T00:57:28;25.70;69.50
39751;DHT22;37579;51.074;17.004;2023-07-13T00:59:58;25.30;70.10
39751;DHT22;37579;51.074;17.004;2023-07-13T01:02:27;25.10;70.90
39751;DHT22;37579;51.074;17.004;2023-07-13T01:04:57;25.10;71.10
39751;DHT22;37579;51.074;17.004;2023-07-13T01:07:22;25.30;70.40
39751;DHT22;37579;51.074;17.004;2023-07-13T01:09:48;25.50;69.70
39751;DHT22;37579;51.074;17.004;2023-07-13T01:12:14;25.50;69.50
39751;DHT22;37579;51.074;17.004;2023-07-13T01:14:40;25.20;70.40
39751;DHT22;37579;51.074;17.004;2023-07-13T01:17:11;24.90;71.50
39751;DHT22;37579;51.074;17.004;2023-07-13T01:19:45;24.80;71.80
39751;DHT22;37579;51.074;17.004;2023-07-13T01:22:14;24.80;72.20
39751;DHT22;37579;51.074;17.004;2023-07-13T01:24:43;24.80;72.10
39751;DHT22;37579;51.074;17.004;2023-07-13T01:27:11;24.90;71.70
39751;DHT22;37579;51.074;17.004;2023-07-13T01:29:40;25.10;70.80
39751;DHT22;37579;51.074;17.004;2023-07-13T01:32:11;25.00;71.20
39751;DHT22;37579;51.074;17.004;2023-07-13T01:34:38;24.80;71.80
39751;DHT22;37579;51.074;17.004;2023-07-13T01:37:05;24.60;72.40
39751;DHT22;37579;51.074;17.004;2023-07-13T01:39:30;24.60;72.50
39751;DHT22;37579;51.074;17.004;2023-07-13T01:41:57;24.50;72.80
39751;DHT22;37579;51.074;17.004;2023-07-13T01:44:23;24.60;72.50
39751;DHT22;37579;51.074;17.004;2023-07-13T01:46:49;24.70;72.20
39751;DHT22;37579;51.074;17.004;2023-07-13T01:49:14;24.70;71.90
39751;DHT22;37579;51.074;17.004;2023-07-13T01:51:40;24.70;72.40
39751;DHT22;37579;51.074;17.004;2023-07-13T01:54:06;24.60;71.90
39751;DHT22;37579;51.074;17.004;2023-07-13T01:56:32;24.60;72.10
39751;DHT22;37579;51.074;17.004;2023-07-13T01:58:57;24.50;72.40
39751;DHT22;37579;51.074;17.004;2023-07-13T02:01:23;24.50;72.30
39751;DHT22;37579;51.074;17.004;2023-07-13T02:03:49;24.50;72.20
39751;DHT22;37579;51.074;17.004;2023-07-13T02:06:15;24.40;72.30
39751;DHT22;37579;51.074;17.004;2023-07-13T02:08:41;24.70;71.50
39751;DHT22;37579;51.074;17.004;2023-07-13T02:11:08;24.80;70.90
39751;DHT22;37579;51.074;17.004;2023-07-13T02:13:34;24.80;71.10
39751;DHT22;37579;51.074;17.004;2023-07-13T02:16:00;24.80;70.90
39751;DHT22;37579;51.074;17.004;2023-07-13T02:18:26;24.90;70.60
39751;DHT22;37579;51.074;17.004;2023-07-13T02:20:52;24.80;70.40
39751;DHT22;37579;51.074;17.004;2023-07-13T02:23:18;24.90;70.20
39751;DHT22;37579;51.074;17.004;2023-07-13T02:25:46;24.70;70.80
39751;DHT22;37579;51.074;17.004;2023-07-13T02:28:12;24.60;71.20
39751;DHT22;37579;51.074;17.004;2023-07-13T02:30:38;24.50;71.50
39751;DHT22;37579;51.074;17.004;2023-07-13T02:33:04;24.30;72.20
39751;DHT22;37579;51.074;17.004;2023-07-13T02:35:30;24.30;72.40
39751;DHT22;37579;51.074;17.004;2023-07-13T02:37:58;24.40;71.90
39751;DHT22;37579;51.074;17.004;2023-07-13T02:40:24;24.50;71.60
39751;DHT22;37579;51.074;17.004;2023-07-13T02:42:50;24.60;71.40
39751;DHT22;37579;51.074;17.004;2023-07-13T02:45:16;24.50;71.40
39751;DHT22;37579;51.074;17.004;2023-07-13T02:47:42;24.50;71.30
39751;DHT22;37579;51.074;17.004;2023-07-13T02:50:08;24.40;71.40
39751;DHT22;37579;51.074;17.004;2023-07-13T02:52:34;24.40;71.60
39751;DHT22;37579;51.074;17.004;2023-07-13T02:55:00;24.40;71.60
39751;DHT22;37579;51.074;17.004;2023-07-13T02:57:26;24.60;70.80
39751;DHT22;37579;51.074;17.004;2023-07-13T02:59:53;24.70;70.30
39751;DHT22;37579;51.074;17.004;2023-07-13T03:02:20;24.70;70.30
39751;DHT22;37579;51.074;17.004;2023-07-13T03:04:46;24.70;70.10
39751;DHT22;37579;51.074;17.004;2023-07-13T03:07:11;24.80;70.00
39751;DHT22;37579;51.074;17.004;2023-07-13T03:09:39;24.90;69.70
39751;DHT22;37579;51.074;17.004;2023-07-13T03:12:07;25.00;69.30
39751;DHT22;37579;51.074;17.004;2023-07-13T03:14:33;25.00;69.00
39751;DHT22;37579;51.074;17.004;2023-07-13T03:17:00;25.10;68.90
39751;DHT22;37579;51.074;17.004;2023-07-13T03:19:30;24.90;69.20
39751;DHT22;37579;51.074;17.004;2023-07-13T03:21:56;24.90;69.40
39751;DHT22;37579;51.074;17.004;2023-07-13T03:24:22;24.80;69.40
39751;DHT22;37579;51.074;17.004;2023-07-13T03:26:50;25.00;69.10
39751;DHT22;37579;51.074;17.004;2023-07-13T03:29:17;25.00;68.50
39751;DHT22;37579;51.074;17.004;2023-07-13T03:31:44;25.20;68.30
39751;DHT22;37579;51.074;17.004;2023-07-13T03:34:10;25.20;68.10
39751;DHT22;37579;51.074;17.004;2023-07-13T03:36:37;25.10;67.80
39751;DHT22;37579;51.074;17.004;2023-07-13T03:39:05;25.10;67.80
39751;DHT22;37579;51.074;17.004;2023-07-13T03:41:53;25.10;67.70
39751;DHT22;37579;51.074;17.004;2023-07-13T03:44:19;25.20;67.40
39751;DHT22;37579;51.074;17.004;2023-07-13T03:46:49;25.20;67.00
39751;DHT22;37579;51.074;17.004;2023-07-13T03:49:15;25.20;66.80
39751;DHT22;37579;51.074;17.004;2023-07-13T03:51:41;25.10;66.80
39751;DHT22;37579;51.074;17.004;2023-07-13T03:54:07;25.20;66.70
39751;DHT22;37579;51.074;17.004;2023-07-13T03:56:32;25.20;66.60
39751;DHT22;37579;51.074;17.004;2023-07-13T03:59:00;25.20;66.60
39751;DHT22;37579;51.074;17.004;2023-07-13T04:01:29;25.20;66.70
39751;DHT22;37579;51.074;17.004;2023-07-13T04:03:54;25.10;66.50
39751;DHT22;37579;51.074;17.004;2023-07-13T04:06:27;25.10;66.20
39751;DHT22;37579;51.074;17.004;2023-07-13T04:08:55;25.20;65.90
39751;DHT22;37579;51.074;17.004;2023-07-13T04:11:23;25.00;65.50
39751;DHT22;37579;51.074;17.004;2023-07-13T04:13:49;25.10;65.30
39751;DHT22;37579;51.074;17.004;2023-07-13T04:16:17;25.20;64.70
39751;DHT22;37579;51.074;17.004;2023-07-13T04:18:44;25.20;64.10
39751;DHT22;37579;51.074;17.004;2023-07-13T04:21:10;25.30;63.70
39751;DHT22;37579;51.074;17.004;2023-07-13T04:23:37;25.40;63.30
39751;DHT22;37579;51.074;17.004;2023-07-13T04:26:03;25.50;63.00
39751;DHT22;37579;51.074;17.004;2023-07-13T04:28:28;25.50;62.00
39751;DHT22;37579;51.074;17.004;2023-07-13T04:30:55;25.50;61.30
39751;DHT22;37579;51.074;17.004;2023-07-13T04:33:21;25.40;60.10
39751;DHT22;37579;51.074;17.004;2023-07-13T04:35:52;25.40;59.30
39751;DHT22;37579;51.074;17.004;2023-07-13T04:38:20;25.40;58.90
39751;DHT22;37579;51.074;17.004;2023-07-13T04:40:47;25.40;58.90
39751;DHT22;37579;51.074;17.004;2023-07-13T04:43:13;25.40;59.00
39751;DHT22;37579;51.074;17.004;2023-07-13T04:45:38;25.30;59.70
39751;DHT22;37579;51.074;17.004;2023-07-13T04:48:05;25.30;59.90
39751;DHT22;37579;51.074;17.004;2023-07-13T04:50:30;25.50;60.00
39751;DHT22;37579;51.074;17.004;2023-07-13T04:52:56;25.60;60.20
39751;DHT22;37579;51.074;17.004;2023-07-13T04:55:22;25.50;60.50
39751;DHT22;37579;51.074;17.004;2023-07-13T04:57:48;25.60;60.40
39751;DHT22;37579;51.074;17.004;2023-07-13T05:00:14;25.70;60.20
39751;DHT22;37579;51.074;17.004;2023-07-13T05:02:44;25.70;60.10
39751;DHT22;37579;51.074;17.004;2023-07-13T05:05:10;25.80;60.10
39751;DHT22;37579;51.074;17.004;2023-07-13T05:07:36;25.80;60.20
39751;DHT22;37579;51.074;17.004;2023-07-13T05:10:03;25.80;60.20
39751;DHT22;37579;51.074;17.004;2023-07-13T05:12:30;25.80;60.20
39751;DHT22;37579;51.074;17.004;2023-07-13T05:14:56;25.80;60.20
39751;DHT22;37579;51.074;17.004;2023-07-13T05:17:22;25.80;60.20
39751;DHT22;37579;51.074;17.004;2023-07-13T05:19:48;25.90;60.30
39751;DHT22;37579;51.074;17.004;2023-07-13T05:22:13;25.90;60.30
39751;DHT22;37579;51.074;17.004;2023-07-13T05:24:41;25.90;60.30
39751;DHT22;37579;51.074;17.004;2023-07-13T05:27:07;25.90;60.30
39751;DHT22;37579;51.074;17.004;2023-07-13T05:29:33;26.00;60.40
39751;DHT22;37579;51.074;17.004;2023-07-13T05:31:59;26.00;60.40
39751;DHT22;37579;51.074;17.004;2023-07-13T05:34:25;26.00;60.30
39751;DHT22;37579;51.074;17.004;2023-07-13T05:36:50;26.00;60.30
39751;DHT22;37579;51.074;17.004;2023-07-13T05:39:16;26.10;60.40
39751;DHT22;37579;51.074;17.004;2023-07-13T05:41:42;26.10;60.40
39751;DHT22;37579;51.074;17.004;2023-07-13T05:44:08;26.10;60.40
39751;DHT22;37579;51.074;17.004;2023-07-13T05:46:34;26.10;60.30
39751;DHT22;37579;51.074;17.004;2023-07-13T05:49:00;26.10;60.30
39751;DHT22;37579;51.074;17.004;2023-07-13T05:51:26;26.10;60.30
39751;DHT22;37579;51.074;17.004;2023-07-13T05:53:51;26.10;60.30
39751;DHT22;37579;51.074;17.004;2023-07-13T05:56:17;26.10;60.30
39751;DHT22;37579;51.074;17.004;2023-07-13T05:58:43;26.20;60.30
39751;DHT22;37579;51.074;17.004;2023-07-13T06:01:12;26.20;60.20
39751;DHT22;37579;51.074;17.004;2023-07-13T06:03:38;26.30;60.30
39751;DHT22;37579;51.074;17.004;2023-07-13T06:06:05;26.30;60.30
39751;DHT22;37579;51.074;17.004;2023-07-13T06:08:31;26.20;60.20
39751;DHT22;37579;51.074;17.004;2023-07-13T06:13:33;26.30;60.20
39751;DHT22;37579;51.074;17.004;2023-07-13T06:15:59;26.30;60.20
39751;DHT22;37579;51.074;17.004;2023-07-13T06:18:25;26.30;60.10
39751;DHT22;37579;51.074;17.004;2023-07-13T06:20:51;26.40;59.90
39751;DHT22;37579;51.074;17.004;2023-07-13T06:23:17;26.70;59.00
39751;DHT22;37579;51.074;17.004;2023-07-13T06:25:43;27.00;58.40
39751;DHT22;37579;51.074;17.004;2023-07-13T06:28:09;27.20;57.60
39751;DHT22;37579;51.074;17.004;2023-07-13T06:30:35;27.20;57.60
39751;DHT22;37579;51.074;17.004;2023-07-13T06:33:03;27.30;57.40
39751;DHT22;37579;51.074;17.004;2023-07-13T06:35:29;27.80;56.00
39751;DHT22;37579;51.074;17.004;2023-07-13T06:37:54;27.80;55.90
39751;DHT22;37579;51.074;17.004;2023-07-13T06:40:20;27.60;56.50
39751;DHT22;37579;51.074;17.004;2023-07-13T06:42:46;27.40;56.90
39751;DHT22;37579;51.074;17.004;2023-07-13T06:45:12;27.20;57.80
39751;DHT22;37579;51.074;17.004;2023-07-13T06:47:38;27.00;58.50
39751;DHT22;37579;51.074;17.004;2023-07-13T06:50:04;26.90;59.10
39751;DHT22;37579;51.074;17.004;2023-07-13T06:52:29;26.80;59.40
39751;DHT22;37579;51.074;17.004;2023-07-13T06:54:55;26.80;59.90
39751;DHT22;37579;51.074;17.004;2023-07-13T06:57:21;26.80;59.60
39751;DHT22;37579;51.074;17.004;2023-07-13T06:59:47;26.80;60.00
39751;DHT22;37579;51.074;17.004;2023-07-13T07:02:13;26.80;60.00
39751;DHT22;37579;51.074;17.004;2023-07-13T07:04:39;26.80;60.10
39751;DHT22;37579;51.074;17.004;2023-07-13T07:07:05;26.70;60.40
39751;DHT22;37579;51.074;17.004;2023-07-13T07:09:31;26.70;60.20
39751;DHT22;37579;51.074;17.004;2023-07-13T07:11:57;26.60;60.30
39751;DHT22;37579;51.074;17.004;2023-07-13T07:14:23;26.70;60.40
39751;DHT22;37579;51.074;17.004;2023-07-13T07:16:50;26.60;60.30
39751;DHT22;37579;51.074;17.004;2023-07-13T07:19:16;26.60;60.40
39751;DHT22;37579;51.074;17.004;2023-07-13T07:21:42;26.60;60.50
39751;DHT22;37579;51.074;17.004;2023-07-13T07:24:08;26.70;60.60
39751;DHT22;37579;51.074;17.004;2023-07-13T07:26:34;26.60;60.80
39751;DHT22;37579;51.074;17.004;2023-07-13T07:29:00;26.60;61.30
39751;DHT22;37579;51.074;17.004;2023-07-13T07:31:25;26.60;60.70
39751;DHT22;37579;51.074;17.004;2023-07-13T07:33:51;26.60;60.60
39751;DHT22;37579;51.074;17.004;2023-07-13T07:36:17;26.60;60.60
39751;DHT22;37579;51.074;17.004;2023-07-13T07:38:43;26.60;60.60
39751;DHT22;37579;51.074;17.004;2023-07-13T07:41:09;26.60;60.50
39751;DHT22;37579;51.074;17.004;2023-07-13T07:43:35;26.60;60.50
39751;DHT22;37579;51.074;17.004;2023-07-13T07:46:02;26.60;60.50
39751;DHT22;37579;51.074;17.004;2023-07-13T07:48:28;26.60;60.60
39751;DHT22;37579;51.074;17.004;2023-07-13T07:50:53;26.60;60.60
39751;DHT22;37579;51.074;17.004;2023-07-13T07:53:19;26.60;60.50
39751;DHT22;37579;51.074;17.004;2023-07-13T07:55:47;26.60;60.60
39751;DHT22;37579;51.074;17.004;2023-07-13T07:58:13;26.60;60.40
39751;DHT22;37579;51.074;17.004;2023-07-13T08:00:39;26.60;60.50
39751;DHT22;37579;51.074;17.004;2023-07-13T08:03:06;26.70;60.40
39751;DHT22;37579;51.074;17.004;2023-07-13T08:05:35;26.60;60.30
39751;DHT22;37579;51.074;17.004;2023-07-13T08:08:01;26.70;60.20
39751;DHT22;37579;51.074;17.004;2023-07-13T08:10:27;26.70;60.00
39751;DHT22;37579;51.074;17.004;2023-07-13T08:12:53;26.70;60.10
39751;DHT22;37579;51.074;17.004;2023-07-13T08:15:19;26.70;60.30
39751;DHT22;37579;51.074;17.004;2023-07-13T08:17:47;26.80;60.80
39751;DHT22;37579;51.074;17.004;2023-07-13T08:20:14;26.70;60.10
39751;DHT22;37579;51.074;17.004;2023-07-13T08:22:40;26.70;60.00
39751;DHT22;37579;51.074;17.004;2023-07-13T08:25:06;26.80;60.00
39751;DHT22;37579;51.074;17.004;2023-07-13T08:27:33;26.70;60.00
39751;DHT22;37579;51.074;17.004;2023-07-13T08:29:59;26.80;60.70
39751;DHT22;37579;51.074;17.004;2023-07-13T08:32:24;26.70;60.60
39751;DHT22;37579;51.074;17.004;2023-07-13T08:34:51;26.70;60.20
39751;DHT22;37579;51.074;17.004;2023-07-13T08:37:17;26.50;60.90
39751;DHT22;37579;51.074;17.004;2023-07-13T08:39:43;26.40;61.40
39751;DHT22;37579;51.074;17.004;2023-07-13T08:47:44;26.20;61.60
39751;DHT22;37579;51.074;17.004;2023-07-13T08:50:17;26.00;62.60
39751;DHT22;37579;51.074;17.004;2023-07-13T08:52:45;26.10;62.10
39751;DHT22;37579;51.074;17.004;2023-07-13T08:55:21;25.90;62.40
39751;DHT22;37579;51.074;17.004;2023-07-13T08:57:54;25.90;62.30
39751;DHT22;37579;51.074;17.004;2023-07-13T09:00:23;25.90;62.10
39751;DHT22;37579;51.074;17.004;2023-07-13T09:02:57;25.90;61.90
39751;DHT22;37579;51.074;17.004;2023-07-13T09:05:31;25.90;61.90
39751;DHT22;37579;51.074;17.004;2023-07-13T09:16:37;25.80;61.70
39751;DHT22;37579;51.074;17.004;2023-07-13T09:19:08;25.60;62.40
39751;DHT22;37579;51.074;17.004;2023-07-13T09:21:41;25.50;63.00
39751;DHT22;37579;51.074;17.004;2023-07-13T09:24:53;25.50;63.30
39751;DHT22;37579;51.074;17.004;2023-07-13T09:27:29;25.70;62.80
39751;DHT22;37579;51.074;17.004;2023-07-13T09:32:34;26.10;61.60
39751;DHT22;37579;51.074;17.004;2023-07-13T09:35:10;26.10;61.40
39751;DHT22;37579;51.074;17.004;2023-07-13T09:37:38;26.20;61.10
39751;DHT22;37579;51.074;17.004;2023-07-13T09:40:13;26.20;60.70
39751;DHT22;37579;51.074;17.004;2023-07-13T09:42:42;26.20;60.70
39751;DHT22;37579;51.074;17.004;2023-07-13T09:45:08;26.30;60.30
39751;DHT22;37579;51.074;17.004;2023-07-13T09:47:39;26.30;59.90
39751;DHT22;37579;51.074;17.004;2023-07-13T09:50:14;26.20;59.90
39751;DHT22;37579;51.074;17.004;2023-07-13T09:52:46;26.30;60.00
39751;DHT22;37579;51.074;17.004;2023-07-13T09:55:30;26.30;60.00
39751;DHT22;37579;51.074;17.004;2023-07-13T09:57:56;26.40;60.20
39751;DHT22;37579;51.074;17.004;2023-07-13T10:00:26;26.40;60.20
39751;DHT22;37579;51.074;17.004;2023-07-13T10:03:01;26.50;59.90
39751;DHT22;37579;51.074;17.004;2023-07-13T10:05:40;26.60;60.00
39751;DHT22;37579;51.074;17.004;2023-07-13T10:08:26;26.60;60.10
39751;DHT22;37579;51.074;17.004;2023-07-13T10:11:01;26.70;60.10
39751;DHT22;37579;51.074;17.004;2023-07-13T10:13:36;26.70;60.00
39751;DHT22;37579;51.074;17.004;2023-07-13T10:16:06;26.70;60.20
39751;DHT22;37579;51.074;17.004;2023-07-13T10:18:49;26.80;60.10
39751;DHT22;37579;51.074;17.004;2023-07-13T10:21:22;26.80;60.20
39751;DHT22;37579;51.074;17.004;2023-07-13T10:23:55;26.90;60.00
39751;DHT22;37579;51.074;17.004;2023-07-13T10:26:27;26.90;60.20
39751;DHT22;37579;51.074;17.004;2023-07-13T10:28:59;26.90;59.20
39751;DHT22;37579;51.074;17.004;2023-07-13T10:31:26;26.90;59.50
39751;DHT22;37579;51.074;17.004;2023-07-13T10:33:52;26.90;59.50
39751;DHT22;37579;51.074;17.004;2023-07-13T10:38:55;26.90;59.20
39751;DHT22;37579;51.074;17.004;2023-07-13T10:41:24;26.90;59.60
39751;DHT22;37579;51.074;17.004;2023-07-13T10:43:53;26.90;59.60
39751;DHT22;37579;51.074;17.004;2023-07-13T10:46:25;27.00;59.60
39751;DHT22;37579;51.074;17.004;2023-07-13T10:49:01;27.00;58.60
39751;DHT22;37579;51.074;17.004;2023-07-13T10:51:30;27.00;59.20
39751;DHT22;37579;51.074;17.004;2023-07-13T10:54:27;27.00;59.10
39751;DHT22;37579;51.074;17.004;2023-07-13T10:57:20;27.00;59.70
39751;DHT22;37579;51.074;17.004;2023-07-13T11:00:13;27.10;58.50
39751;DHT22;37579;51.074;17.004;2023-07-13T11:02:34;27.00;58.00
39751;DHT22;37579;51.074;17.004;2023-07-13T11:05:29;27.10;57.60
39751;DHT22;37579;51.074;17.004;2023-07-13T11:08:04;27.00;57.70
39751;DHT22;37579;51.074;17.004;2023-07-13T11:10:54;27.00;57.70
39751;DHT22;37579;51.074;17.004;2023-07-13T11:18:48;27.00;56.80
39751;DHT22;37579;51.074;17.004;2023-07-13T11:21:20;26.90;56.60
39751;DHT22;37579;51.074;17.004;2023-07-13T11:23:55;26.90;56.60
39751;DHT22;37579;51.074;17.004;2023-07-13T11:31:49;26.80;55.20
39751;DHT22;37579;51.074;17.004;2023-07-13T11:34:18;26.90;55.50
39751;DHT22;37579;51.074;17.004;2023-07-13T11:36:47;26.90;56.20
39751;DHT22;37579;51.074;17.004;2023-07-13T11:39:20;26.90;56.00
39751;DHT22;37579;51.074;17.004;2023-07-13T11:41:54;26.90;56.10
39751;DHT22;37579;51.074;17.004;2023-07-13T11:44:24;26.90;56.30
39751;DHT22;37579;51.074;17.004;2023-07-13T11:46:58;26.80;56.10
39751;DHT22;37579;51.074;17.004;2023-07-13T11:49:29;26.80;55.50
39751;DHT22;37579;51.074;17.004;2023-07-13T11:51:56;26.80;55.20
39751;DHT22;37579;51.074;17.004;2023-07-13T11:54:34;26.80;56.20
39751;DHT22;37579;51.074;17.004;2023-07-13T11:59:50;26.90;55.40
39751;DHT22;37579;51.074;17.004;2023-07-13T12:02:29;26.90;55.30
39751;DHT22;37579;51.074;17.004;2023-07-13T12:04:56;26.90;55.70
39751;DHT22;37579;51.074;17.004;2023-07-13T12:07:22;26.80;55.70
39751;DHT22;37579;51.074;17.004;2023-07-13T12:09:48;26.80;55.70
39751;DHT22;37579;51.074;17.004;2023-07-13T12:12:22;26.90;55.50
39751;DHT22;37579;51.074;17.004;2023-07-13T12:14:52;26.90;55.50
39751;DHT22;37579;51.074;17.004;2023-07-13T12:17:22;26.80;55.20
39751;DHT22;37579;51.074;17.004;2023-07-13T12:19:50;26.80;55.90
39751;DHT22;37579;51.074;17.004;2023-07-13T12:22:18;26.90;56.00
39751;DHT22;37579;51.074;17.004;2023-07-13T12:24:46;26.80;55.70
39751;DHT22;37579;51.074;17.004;2023-07-13T12:27:26;26.80;55.00
39751;DHT22;37579;51.074;17.004;2023-07-13T12:30:24;26.80;54.20
39751;DHT22;37579;51.074;17.004;2023-07-13T12:33:11;26.80;54.20
39751;DHT22;37579;51.074;17.004;2023-07-13T12:35:51;26.80;52.60
39751;DHT22;37579;51.074;17.004;2023-07-13T12:38:18;26.80;52.10
39751;DHT22;37579;51.074;17.004;2023-07-13T12:40:49;26.80;52.10
39751;DHT22;37579;51.074;17.004;2023-07-13T12:43:16;26.80;52.50
39751;DHT22;37579;51.074;17.004;2023-07-13T12:46:16;26.90;52.20
39751;DHT22;37579;51.074;17.004;2023-07-13T12:48:43;26.90;53.10
39751;DHT22;37579;51.074;17.004;2023-07-13T12:51:14;26.80;52.60
39751;DHT22;37579;51.074;17.004;2023-07-13T12:53:48;26.70;52.10
39751;DHT22;37579;51.074;17.004;2023-07-13T12:56:21;26.80;51.50
39751;DHT22;37579;51.074;17.004;2023-07-13T12:58:48;26.80;51.30
39751;DHT22;37579;51.074;17.004;2023-07-13T13:01:21;26.90;51.50
39751;DHT22;37579;51.074;17.004;2023-07-13T13:03:52;26.90;51.90
39751;DHT22;37579;51.074;17.004;2023-07-13T13:08:49;27.00;51.80
39751;DHT22;37579;51.074;17.004;2023-07-13T13:11:16;26.90;51.90
39751;DHT22;37579;51.074;17.004;2023-07-13T13:13:43;27.00;52.30
39751;DHT22;37579;51.074;17.004;2023-07-13T13:16:33;26.90;52.40
39751;DHT22;37579;51.074;17.004;2023-07-13T13:19:13;26.90;50.90
39751;DHT22;37579;51.074;17.004;2023-07-13T13:21:40;26.90;51.20
39751;DHT22;37579;51.074;17.004;2023-07-13T13:24:20;26.90;51.70
39751;DHT22;37579;51.074;17.004;2023-07-13T13:26:47;27.00;51.60
39751;DHT22;37579;51.074;17.004;2023-07-13T13:29:17;27.10;51.50
39751;DHT22;37579;51.074;17.004;2023-07-13T13:31:44;27.00;49.40
39751;DHT22;37579;51.074;17.004;2023-07-13T13:34:15;26.80;48.60
39751;DHT22;37579;51.074;17.004;2023-07-13T13:36:42;26.80;48.90
39751;DHT22;37579;51.074;17.004;2023-07-13T13:39:28;26.80;49.20
39751;DHT22;37579;51.074;17.004;2023-07-13T13:41:55;26.80;49.40
39751;DHT22;37579;51.074;17.004;2023-07-13T13:44:22;26.80;49.90
39751;DHT22;37579;51.074;17.004;2023-07-13T13:46:50;26.90;50.10
39751;DHT22;37579;51.074;17.004;2023-07-13T13:49:24;26.80;49.40
39751;DHT22;37579;51.074;17.004;2023-07-13T13:51:50;26.90;50.70
39751;DHT22;37579;51.074;17.004;2023-07-13T13:54:17;26.90;50.40
39751;DHT22;37579;51.074;17.004;2023-07-13T13:56:45;26.90;50.60
39751;DHT22;37579;51.074;17.004;2023-07-13T13:59:11;26.90;49.20
39751;DHT22;37579;51.074;17.004;2023-07-13T14:01:38;26.90;50.20
39751;DHT22;37579;51.074;17.004;2023-07-13T14:04:04;26.90;50.20
39751;DHT22;37579;51.074;17.004;2023-07-13T14:06:31;26.90;50.70
39751;DHT22;37579;51.074;17.004;2023-07-13T14:08:57;27.00;51.20
39751;DHT22;37579;51.074;17.004;2023-07-13T14:11:23;27.00;52.00
39751;DHT22;37579;51.074;17.004;2023-07-13T14:13:52;27.00;51.50
39751;DHT22;37579;51.074;17.004;2023-07-13T14:16:20;27.00;51.40
39751;DHT22;37579;51.074;17.004;2023-07-13T14:18:48;27.10;51.40
39751;DHT22;37579;51.074;17.004;2023-07-13T14:21:15;27.00;50.50
39751;DHT22;37579;51.074;17.004;2023-07-13T14:23:43;27.00;50.30
39751;DHT22;37579;51.074;17.004;2023-07-13T14:26:12;27.00;49.50
39751;DHT22;37579;51.074;17.004;2023-07-13T14:28:41;27.00;50.80
39751;DHT22;37579;51.074;17.004;2023-07-13T14:31:09;27.00;50.50
39751;DHT22;37579;51.074;17.004;2023-07-13T14:33:35;27.00;49.50
39751;DHT22;37579;51.074;17.004;2023-07-13T14:36:01;27.00;50.90
39751;DHT22;37579;51.074;17.004;2023-07-13T14:38:27;27.00;51.20
39751;DHT22;37579;51.074;17.004;2023-07-13T14:40:53;27.00;49.80
39751;DHT22;37579;51.074;17.004;2023-07-13T14:43:19;27.00;49.50
39751;DHT22;37579;51.074;17.004;2023-07-13T14:45:47;27.00;49.50
39751;DHT22;37579;51.074;17.004;2023-07-13T14:48:20;27.00;48.80
39751;DHT22;37579;51.074;17.004;2023-07-13T14:50:50;27.00;47.60
39751;DHT22;37579;51.074;17.004;2023-07-13T14:53:18;27.00;50.10
39751;DHT22;37579;51.074;17.004;2023-07-13T14:55:44;27.00;50.70
39751;DHT22;37579;51.074;17.004;2023-07-13T14:58:10;27.00;50.90
39751;DHT22;37579;51.074;17.004;2023-07-13T15:00:36;27.00;50.80
39751;DHT22;37579;51.074;17.004;2023-07-13T15:03:03;27.00;50.60
39751;DHT22;37579;51.074;17.004;2023-07-13T15:05:32;27.00;50.50
39751;DHT22;37579;51.074;17.004;2023-07-13T15:08:00;27.00;50.70
39751;DHT22;37579;51.074;17.004;2023-07-13T15:10:29;27.00;50.40
39751;DHT22;37579;51.074;17.004;2023-07-13T15:12:59;27.00;50.10
39751;DHT22;37579;51.074;17.004;2023-07-13T15:15:30;27.10;49.90
39751;DHT22;37579;51.074;17.004;2023-07-13T15:17:58;27.10;50.40
39751;DHT22;37579;51.074;17.004;2023-07-13T15:20:28;27.00;51.10
39751;DHT22;37579;51.074;17.004;2023-07-13T15:22:55;27.00;50.30
39751;DHT22;37579;51.074;17.004;2023-07-13T15:25:24;27.00;50.40
39751;DHT22;37579;51.074;17.004;2023-07-13T15:27:54;27.00;50.50
39751;DHT22;37579;51.074;17.004;2023-07-13T15:30:21;26.90;49.70
39751;DHT22;37579;51.074;17.004;2023-07-13T15:32:48;26.90;50.10
39751;DHT22;37579;51.074;17.004;2023-07-13T15:35:25;26.90;49.70
39751;DHT22;37579;51.074;17.004;2023-07-13T15:37:52;26.90;47.80
39751;DHT22;37579;51.074;17.004;2023-07-13T15:40:18;26.80;47.70
39751;DHT22;37579;51.074;17.004;2023-07-13T15:42:47;26.80;48.90
39751;DHT22;37579;51.074;17.004;2023-07-13T15:45:19;26.80;49.20
39751;DHT22;37579;51.074;17.004;2023-07-13T15:47:47;26.80;49.60
39751;DHT22;37579;51.074;17.004;2023-07-13T15:50:21;26.70;49.60
39751;DHT22;37579;51.074;17.004;2023-07-13T15:52:49;26.70;50.00
39751;DHT22;37579;51.074;17.004;2023-07-13T15:55:15;26.70;50.20
39751;DHT22;37579;51.074;17.004;2023-07-13T15:57:52;26.60;50.20
39751;DHT22;37579;51.074;17.004;2023-07-13T16:00:24;26.60;50.00
39751;DHT22;37579;51.074;17.004;2023-07-13T16:02:50;26.60;50.60
39751;DHT22;37579;51.074;17.004;2023-07-13T16:05:18;26.50;50.80